createdAt,value
2023-03-13T00:00:04.997Z,91.36
2023-03-13T00:01:04.904Z,91.42
2023-03-13T00:02:05.079Z,90.90
2023-03-13T00:03:04.895Z,91.21
2023-03-13T00:04:04.895Z,91.21
2023-03-13T00:05:04.969Z,91.31
2023-03-13T00:06:04.954Z,91.11
2023-03-13T00:07:04.979Z,90.69
2023-03-13T00:08:04.834Z,91.00
2023-03-13T00:09:04.869Z,90.45
2023-03-13T00:10:04.834Z,90.18
2023-03-13T00:11:04.819Z,90.14
2023-03-13T00:12:04.831Z,89.73
2023-03-13T00:13:04.912Z,89.73
2023-03-13T00:14:04.819Z,89.62
2023-03-13T00:15:04.823Z,89.52
2023-03-13T00:16:04.706Z,89.31
2023-03-13T00:17:04.745Z,89.31
2023-03-13T00:18:04.767Z,89.62
2023-03-13T00:19:04.673Z,89.11
2023-03-13T00:20:04.779Z,89.31
2023-03-13T00:21:04.838Z,89.31
2023-03-13T00:22:04.674Z,89.01
2023-03-13T00:23:04.870Z,89.62
2023-03-13T00:24:04.761Z,89.42
2023-03-13T00:25:04.859Z,89.42
2023-03-13T00:26:04.757Z,89.42
2023-03-13T00:27:04.834Z,89.73
2023-03-13T00:28:04.719Z,89.01
2023-03-13T00:29:04.788Z,89.11
2023-03-13T00:30:04.697Z,89.22
2023-03-13T00:31:04.761Z,89.31
2023-03-13T00:32:04.784Z,89.31
2023-03-13T00:33:04.690Z,89.42
2023-03-13T00:34:04.747Z,89.42
2023-03-13T00:35:04.709Z,89.52
2023-03-13T00:36:04.696Z,89.22
2023-03-13T00:37:04.560Z,89.52
2023-03-13T00:38:04.551Z,89.52
2023-03-13T00:39:04.668Z,89.52
2023-03-13T00:40:04.591Z,89.42
2023-03-13T00:41:04.574Z,89.38
2023-03-13T00:42:04.702Z,89.07
2023-03-13T00:43:04.620Z,89.22
2023-03-13T00:44:04.659Z,89.28
2023-03-13T00:45:04.638Z,89.28
2023-03-13T00:46:04.767Z,88.90
2023-03-13T00:47:04.616Z,89.11
2023-03-13T00:48:04.668Z,89.31
2023-03-13T00:49:04.572Z,89.22
2023-03-13T00:50:04.643Z,88.90
2023-03-13T00:51:04.621Z,89.28
2023-03-13T00:52:04.546Z,89.17
2023-03-13T00:53:04.573Z,88.86
2023-03-13T00:54:04.536Z,88.86
2023-03-13T00:55:04.537Z,89.01
2023-03-13T00:56:04.669Z,89.11
2023-03-13T00:57:04.487Z,89.11
2023-03-13T00:58:04.438Z,88.96
2023-03-13T00:59:04.443Z,89.07
2023-03-13T01:00:04.418Z,89.31
2023-03-13T01:01:04.397Z,89.22
2023-03-13T01:02:04.489Z,88.96
2023-03-13T01:03:04.474Z,89.28
2023-03-13T01:04:04.373Z,89.07
2023-03-13T01:05:04.519Z,89.48
2023-03-13T01:06:04.513Z,89.28
2023-03-13T01:07:04.518Z,89.42
2023-03-13T01:08:04.461Z,89.69
2023-03-13T01:09:04.519Z,89.79
2023-03-13T01:10:05.431Z,89.83
2023-03-13T01:11:04.511Z,89.79
2023-03-13T01:12:04.466Z,89.79
2023-03-13T01:13:04.453Z,90.00
2023-03-13T01:14:04.400Z,89.89
2023-03-13T01:15:04.382Z,89.73
2023-03-13T01:16:04.496Z,89.89
2023-03-13T01:17:04.405Z,90.00
2023-03-13T01:18:04.499Z,90.00
2023-03-13T01:19:04.380Z,89.79
2023-03-13T01:20:04.278Z,89.48
2023-03-13T01:21:04.263Z,89.48
2023-03-13T01:22:04.243Z,89.48
2023-03-13T01:23:04.345Z,89.48
2023-03-13T01:24:04.305Z,89.28
2023-03-13T01:25:04.224Z,89.34
2023-03-13T01:26:04.241Z,89.48
2023-03-13T01:27:04.232Z,89.34
2023-03-13T01:28:04.283Z,89.28
2023-03-13T01:29:04.350Z,89.38
2023-03-13T01:30:04.357Z,89.38
2023-03-13T01:31:04.307Z,89.48
2023-03-13T01:32:04.322Z,89.69
2023-03-13T01:33:04.263Z,89.79
2023-03-13T01:34:04.340Z,90.16
2023-03-13T01:35:04.294Z,90.20
2023-03-13T01:36:04.335Z,90.61
2023-03-13T01:37:04.223Z,90.30
2023-03-13T01:38:04.245Z,90.92
2023-03-13T01:39:04.211Z,90.92
2023-03-13T01:40:04.276Z,90.30
2023-03-13T01:41:04.210Z,90.30
2023-03-13T01:42:04.115Z,90.92
2023-03-13T01:43:05.179Z,90.81
2023-03-13T01:44:04.181Z,90.61
2023-03-13T01:45:04.070Z,90.72
2023-03-13T01:46:04.287Z,91.08
2023-03-13T01:47:04.113Z,90.36
2023-03-13T01:48:04.038Z,90.78
2023-03-13T01:49:04.141Z,90.47
2023-03-13T01:50:04.152Z,90.78
2023-03-13T01:51:04.201Z,90.81
2023-03-13T01:52:04.176Z,90.47
2023-03-13T01:53:04.170Z,90.92
2023-03-13T01:54:04.148Z,90.36
2023-03-13T01:55:04.158Z,90.36
2023-03-13T01:56:04.124Z,90.61
2023-03-13T01:57:04.405Z,90.81
2023-03-13T01:58:04.075Z,90.81
2023-03-13T01:59:04.039Z,90.36
2023-03-13T02:00:04.129Z,90.36
2023-03-13T02:01:04.044Z,90.36
2023-03-13T02:02:04.220Z,90.57
2023-03-13T02:03:04.167Z,90.57
2023-03-13T02:04:04.123Z,90.36
2023-03-13T02:05:04.085Z,90.26
2023-03-13T02:06:03.964Z,90.06
2023-03-13T02:07:03.966Z,90.78
2023-03-13T02:08:04.044Z,90.67
2023-03-13T02:09:04.040Z,90.47
2023-03-13T02:10:04.896Z,90.88
2023-03-13T02:11:03.926Z,90.30
2023-03-13T02:12:03.980Z,90.78
2023-03-13T02:13:04.069Z,90.88
2023-03-13T02:14:03.967Z,90.26
2023-03-13T02:15:03.989Z,90.88
2023-03-13T02:16:04.098Z,90.78
2023-03-13T02:17:03.987Z,90.78
2023-03-13T02:18:04.068Z,90.47
2023-03-13T02:19:04.015Z,90.78
2023-03-13T02:20:04.036Z,90.57
2023-03-13T02:21:03.906Z,90.57
2023-03-13T02:22:03.855Z,90.88
2023-03-13T02:23:03.952Z,90.98
2023-03-13T02:24:03.923Z,90.81
2023-03-13T02:25:03.882Z,90.88
2023-03-13T02:26:03.878Z,91.08
2023-03-13T02:27:03.801Z,91.29
2023-03-13T02:28:03.773Z,90.98
2023-03-13T02:29:03.887Z,90.98
2023-03-13T02:30:03.878Z,90.78
2023-03-13T02:31:03.882Z,90.88
2023-03-13T02:32:03.812Z,90.67
2023-03-13T02:33:03.898Z,91.39
2023-03-13T02:34:03.809Z,91.49
2023-03-13T02:35:03.880Z,91.19
2023-03-13T02:36:03.808Z,90.78
2023-03-13T02:37:03.835Z,91.39
2023-03-13T02:38:03.784Z,91.53
2023-03-13T02:39:03.816Z,91.49
2023-03-13T02:40:03.803Z,91.29
2023-03-13T02:41:03.724Z,91.29
2023-03-13T02:42:03.711Z,91.19
2023-03-13T02:43:03.722Z,91.19
2023-03-13T02:44:03.670Z,90.78
2023-03-13T02:45:04.196Z,90.67
2023-03-13T02:46:03.697Z,91.08
2023-03-13T02:47:03.708Z,91.19
2023-03-13T02:48:03.634Z,91.19
2023-03-13T02:49:03.731Z,91.70
2023-03-13T02:50:03.756Z,91.29
2023-03-13T02:51:03.774Z,91.19
2023-03-13T02:52:03.694Z,91.08
2023-03-13T02:53:03.730Z,91.29
2023-03-13T02:54:03.738Z,91.70
2023-03-13T02:55:03.698Z,91.29
2023-03-13T02:56:03.771Z,91.29
2023-03-13T02:57:03.678Z,91.60
2023-03-13T02:58:03.714Z,91.44
2023-03-13T02:59:03.734Z,91.19
2023-03-13T03:00:03.678Z,91.29
2023-03-13T03:01:03.639Z,91.29
2023-03-13T03:02:03.837Z,91.60
2023-03-13T03:03:03.590Z,91.60
2023-03-13T03:04:03.746Z,91.39
2023-03-13T03:05:03.564Z,90.98
2023-03-13T03:06:03.648Z,91.70
2023-03-13T03:07:03.683Z,92.01
2023-03-13T03:08:03.618Z,92.11
2023-03-13T03:09:03.627Z,91.29
2023-03-13T03:10:03.597Z,91.08
2023-03-13T03:11:03.593Z,92.11
2023-03-13T03:12:03.592Z,92.01
2023-03-13T03:13:03.638Z,91.29
2023-03-13T03:14:03.598Z,91.60
2023-03-13T03:15:03.600Z,91.55
2023-03-13T03:16:03.563Z,91.55
2023-03-13T03:17:03.497Z,91.29
2023-03-13T03:18:03.513Z,91.04
2023-03-13T03:19:03.528Z,90.94
2023-03-13T03:20:03.491Z,90.83
2023-03-13T03:21:03.439Z,91.14
2023-03-13T03:22:03.431Z,90.73
2023-03-13T03:23:03.434Z,91.55
2023-03-13T03:24:03.540Z,90.73
2023-03-13T03:25:03.545Z,90.94
2023-03-13T03:26:03.512Z,91.00
2023-03-13T03:27:03.542Z,90.89
2023-03-13T03:28:03.509Z,90.28
2023-03-13T03:29:03.597Z,90.48
2023-03-13T03:30:03.437Z,90.69
2023-03-13T03:31:03.458Z,90.69
2023-03-13T03:32:03.473Z,90.89
2023-03-13T03:33:03.534Z,90.38
2023-03-13T03:34:03.421Z,90.28
2023-03-13T03:35:03.461Z,90.69
2023-03-13T03:36:03.615Z,90.95
2023-03-13T03:37:03.419Z,90.80
2023-03-13T03:38:03.403Z,91.00
2023-03-13T03:39:03.411Z,91.20
2023-03-13T03:40:04.430Z,91.06
2023-03-13T03:41:03.383Z,91.31
2023-03-13T03:42:03.307Z,91.10
2023-03-13T03:43:03.269Z,91.72
2023-03-13T03:44:03.309Z,91.93
2023-03-13T03:45:03.368Z,92.03
2023-03-13T03:46:03.323Z,92.64
2023-03-13T03:47:03.376Z,92.13
2023-03-13T03:48:03.378Z,92.74
2023-03-13T03:49:03.308Z,93.16
2023-03-13T03:50:03.349Z,93.46
2023-03-13T03:51:03.378Z,94.29
2023-03-13T03:52:03.367Z,93.98
2023-03-13T03:53:03.288Z,93.77
2023-03-13T03:54:03.305Z,94.08
2023-03-13T03:55:03.280Z,94.49
2023-03-13T03:56:03.372Z,95.62
2023-03-13T03:57:03.263Z,94.80
2023-03-13T03:58:03.258Z,95.10
2023-03-13T03:59:03.234Z,95.42
2023-03-13T04:00:03.218Z,95.87
2023-03-13T04:01:03.183Z,96.14
2023-03-13T04:02:03.229Z,96.03
2023-03-13T04:03:03.157Z,96.14
2023-03-13T04:04:04.161Z,96.75
2023-03-13T04:05:03.135Z,97.10
2023-03-13T04:06:04.250Z,97.62
2023-03-13T04:07:03.537Z,97.20
2023-03-13T04:08:03.236Z,97.72
2023-03-13T04:09:03.205Z,98.13
2023-03-13T04:10:03.202Z,98.03
2023-03-13T04:11:03.200Z,98.24
2023-03-13T04:12:03.143Z,98.44
2023-03-13T04:13:03.315Z,98.75
2023-03-13T04:14:03.214Z,98.54
2023-03-13T04:15:03.212Z,98.96
2023-03-13T04:16:03.132Z,98.75
2023-03-13T04:17:03.175Z,98.96
2023-03-13T04:18:03.178Z,99.26
2023-03-13T04:19:03.159Z,99.47
2023-03-13T04:20:03.106Z,99.26
2023-03-13T04:21:03.086Z,99.41
2023-03-13T04:22:03.133Z,99.82
2023-03-13T04:23:03.070Z,99.72
2023-03-13T04:24:02.998Z,99.99
2023-03-13T04:25:02.968Z,99.99
2023-03-13T04:26:03.030Z,99.99
2023-03-13T04:27:03.082Z,99.93
2023-03-13T04:28:03.084Z,99.99
2023-03-13T04:29:03.089Z,99.99
2023-03-13T04:30:03.030Z,99.99
2023-03-13T04:31:03.112Z,99.99
2023-03-13T04:32:04.062Z,99.99
2023-03-13T04:33:03.128Z,99.99
2023-03-13T04:34:03.032Z,99.99
2023-03-13T04:35:03.158Z,99.99
2023-03-13T04:36:03.065Z,99.99
2023-03-13T04:37:02.911Z,99.99
2023-03-13T04:38:02.899Z,99.99
2023-03-13T04:39:02.896Z,99.99
2023-03-13T04:40:03.885Z,99.99
2023-03-13T04:41:02.889Z,99.99
2023-03-13T04:42:02.879Z,99.99
2023-03-13T04:43:02.953Z,99.88
2023-03-13T04:44:02.990Z,99.67
2023-03-13T04:45:03.039Z,99.88
2023-03-13T04:46:02.953Z,99.57
2023-03-13T04:47:02.914Z,99.47
2023-03-13T04:48:02.919Z,99.32
2023-03-13T04:49:02.899Z,99.11
2023-03-13T04:50:02.875Z,99.11
2023-03-13T04:51:03.016Z,99.21
2023-03-13T04:52:02.867Z,99.32
2023-03-13T04:53:02.884Z,99.52
2023-03-13T04:54:02.867Z,99.21
2023-03-13T04:55:02.970Z,99.21
2023-03-13T04:56:02.809Z,99.11
2023-03-13T04:57:02.801Z,99.52
2023-03-13T04:58:02.807Z,99.21
2023-03-13T04:59:02.761Z,99.42
2023-03-13T05:00:02.846Z,99.32
2023-03-13T05:01:02.982Z,99.48
2023-03-13T05:02:02.813Z,99.21
2023-03-13T05:03:02.831Z,99.21
2023-03-13T05:04:02.809Z,99.58
2023-03-13T05:05:02.839Z,99.07
2023-03-13T05:06:02.801Z,99.48
2023-03-13T05:07:02.839Z,99.38
2023-03-13T05:08:02.771Z,99.42
2023-03-13T05:09:02.764Z,99.38
2023-03-13T05:10:02.760Z,99.17
2023-03-13T05:11:02.769Z,98.76
2023-03-13T05:12:02.822Z,98.25
2023-03-13T05:13:02.670Z,98.76
2023-03-13T05:14:02.753Z,98.66
2023-03-13T05:15:02.783Z,98.86
2023-03-13T05:16:02.784Z,98.66
2023-03-13T05:17:02.647Z,98.76
2023-03-13T05:18:02.730Z,98.66
2023-03-13T05:19:02.700Z,98.14
2023-03-13T05:20:02.599Z,98.20
2023-03-13T05:21:02.681Z,98.51
2023-03-13T05:22:02.606Z,97.99
2023-03-13T05:23:02.728Z,97.89
2023-03-13T05:24:03.665Z,98.10
2023-03-13T05:25:02.660Z,97.89
2023-03-13T05:26:02.656Z,98.20
2023-03-13T05:27:02.671Z,98.20
2023-03-13T05:28:02.583Z,98.20
2023-03-13T05:29:02.682Z,98.10
2023-03-13T15:19:27.519Z,93.33
2023-03-13T15:20:28.958Z,93.64
2023-03-13T15:28:53.075Z,92.68
2023-03-13T15:49:49.721Z,91.67
2023-03-13T15:50:51.420Z,92.18
2023-03-13T15:57:56.320Z,92.83
2023-03-13T15:58:57.733Z,93.03
2023-03-13T15:59:57.612Z,93.24
2023-03-13T16:00:57.980Z,93.74
2023-03-13T16:01:57.404Z,93.99
2023-03-13T16:04:43.733Z,93.79
2023-03-13T16:05:45.333Z,93.68
2023-03-13T16:06:45.140Z,93.84
2023-03-13T16:07:45.493Z,93.59
2023-03-13T16:08:45.953Z,93.89
2023-03-13T16:09:45.615Z,93.68
2023-03-13T16:10:45.537Z,93.79
2023-03-13T16:11:45.603Z,93.79
2023-03-13T16:12:45.539Z,93.33
2023-03-13T16:13:45.629Z,94.20
2023-03-13T16:14:45.279Z,94.25
2023-03-13T16:15:45.248Z,93.74
2023-03-13T16:16:45.337Z,93.24
2023-03-13T16:17:45.369Z,93.59
2023-03-13T16:18:45.411Z,94.50
2023-03-13T16:19:45.257Z,93.54
2023-03-13T16:20:45.230Z,93.54
2023-03-13T16:21:45.283Z,93.79
2023-03-13T16:22:45.200Z,92.77
2023-03-13T16:23:45.118Z,92.63
2023-03-13T16:25:22.979Z,92.67
2023-03-13T16:25:44.914Z,93.03
2023-03-13T16:26:44.995Z,92.63
2023-03-13T16:28:44.873Z,93.13
2023-03-13T16:29:44.785Z,92.02
2023-03-13T16:30:45.839Z,91.67
2023-03-13T16:31:46.336Z,91.61
2023-03-13T16:32:44.979Z,92.22
2023-03-13T16:33:45.160Z,92.18
2023-03-13T16:34:44.944Z,91.87
2023-03-13T16:35:45.085Z,91.36
2023-03-13T16:36:45.374Z,91.56
2023-03-13T16:37:45.408Z,91.16
2023-03-13T16:38:44.987Z,91.87
2023-03-13T16:42:04.070Z,91.30
2023-03-13T16:43:05.987Z,91.00
2023-03-13T16:44:05.673Z,91.51
2023-03-13T16:45:05.571Z,91.61
2023-03-13T16:48:12.257Z,91.35
2023-03-13T16:49:24.340Z,91.82
2023-03-13T16:50:14.858Z,91.25
2023-03-13T16:51:14.009Z,91.41
2023-03-13T16:52:14.030Z,91.10
2023-03-13T16:53:14.735Z,91.55
2023-03-13T16:54:13.686Z,91.35
2023-03-13T16:57:08.292Z,91.86
2023-03-13T16:58:09.909Z,91.65
2023-03-13T16:59:10.098Z,91.55
2023-03-13T17:00:09.737Z,91.75
2023-03-13T17:03:15.064Z,91.69
2023-03-13T17:04:17.071Z,91.69
2023-03-13T17:08:43.318Z,92.00
2023-03-13T17:09:44.885Z,92.00
2023-03-13T22:24:19.103Z,96.58
2023-03-13T22:27:20.357Z,96.89
2023-03-13T22:28:21.933Z,96.74
2023-03-13T22:31:36.071Z,96.54
2023-03-13T22:32:37.479Z,96.74
2023-03-13T22:33:37.369Z,96.03
2023-03-13T22:40:45.933Z,95.62
2023-03-13T22:41:25.940Z,95.72
2023-03-13T22:42:25.600Z,94.90
2023-03-13T22:45:18.897Z,95.10
2023-03-13T22:46:20.263Z,94.90
2023-03-13T22:47:20.183Z,94.34
2023-03-13T22:48:20.177Z,95.57
2023-03-13T22:51:08.907Z,94.45
2023-03-13T22:52:09.377Z,94.24
2023-03-13T22:53:09.441Z,94.92
2023-03-13T22:56:25.824Z,93.84
2023-03-13T22:57:24.494Z,94.65
2023-03-13T23:07:22.768Z,92.97
2023-03-13T23:08:24.026Z,93.07
2023-03-13T23:15:23.475Z,92.87
2023-03-13T23:16:23.947Z,92.87
2023-03-13T23:17:23.836Z,92.46
2023-03-13T23:20:44.169Z,92.36
2023-03-13T23:21:45.168Z,92.36
2023-03-13T23:22:45.175Z,92.46
2023-03-13T23:28:58.353Z,92.87
2023-03-13T23:41:41.506Z,93.52
2023-03-13T23:42:42.764Z,93.57
2023-03-13T23:49:44.773Z,93.47
2023-03-13T23:50:46.119Z,93.62
2023-03-13T23:58:46.100Z,93.57
